sensor_id;sensor_type;location;lat;lon;timestamp;P1;durP1;ratioP1;P2;durP2;ratioP2
10867;SDS011;62667;48.698;8.762;2024-03-08T00:02:24;23.13;;;13.33;;
10867;SDS011;62667;48.698;8.762;2024-03-08T00:04:52;24.47;;;13.27;;
10867;SDS011;62667;48.698;8.762;2024-03-08T00:07:19;24.63;;;13.67;;
10867;SDS011;62667;48.698;8.762;2024-03-08T00:09:46;23.17;;;13.70;;
10867;SDS011;62667;48.698;8.762;2024-03-08T00:12:15;25.60;;;13.27;;
10867;SDS011;62667;48.698;8.762;2024-03-08T00:14:42;30.80;;;14.47;;
10867;SDS011;62667;48.698;8.762;2024-03-08T00:17:10;25.67;;;13.67;;
10867;SDS011;62667;48.698;8.762;2024-03-08T00:19:36;22.47;;;13.40;;
10867;SDS011;62667;48.698;8.762;2024-03-08T00:22:04;23.73;;;12.90;;
10867;SDS011;62667;48.698;8.762;2024-03-08T00:24:31;23.07;;;13.40;;
10867;SDS011;62667;48.698;8.762;2024-03-08T00:26:57;22.73;;;12.77;;
10867;SDS011;62667;48.698;8.762;2024-03-08T00:29:27;20.83;;;12.37;;
10867;SDS011;62667;48.698;8.762;2024-03-08T00:31:56;22.37;;;12.80;;
10867;SDS011;62667;48.698;8.762;2024-03-08T00:34:23;21.47;;;11.83;;
10867;SDS011;62667;48.698;8.762;2024-03-08T00:36:49;24.57;;;14.23;;
10867;SDS011;62667;48.698;8.762;2024-03-08T00:39:18;22.67;;;13.50;;
10867;SDS011;62667;48.698;8.762;2024-03-08T00:41:46;24.43;;;14.43;;
10867;SDS011;62667;48.698;8.762;2024-03-08T00:44:12;27.30;;;15.33;;
10867;SDS011;62667;48.698;8.762;2024-03-08T00:46:39;33.63;;;16.47;;
10867;SDS011;62667;48.698;8.762;2024-03-08T00:49:06;23.40;;;15.07;;
10867;SDS011;62667;48.698;8.762;2024-03-08T00:51:32;25.27;;;14.90;;
10867;SDS011;62667;48.698;8.762;2024-03-08T00:53:59;28.53;;;15.17;;
10867;SDS011;62667;48.698;8.762;2024-03-08T00:56:27;30.73;;;14.57;;
10867;SDS011;62667;48.698;8.762;2024-03-08T00:58:53;25.63;;;14.30;;
10867;SDS011;62667;48.698;8.762;2024-03-08T01:01:20;23.87;;;13.53;;
10867;SDS011;62667;48.698;8.762;2024-03-08T01:03:46;23.80;;;13.03;;
10867;SDS011;62667;48.698;8.762;2024-03-08T01:06:13;20.50;;;12.93;;
10867;SDS011;62667;48.698;8.762;2024-03-08T01:08:40;25.20;;;13.57;;
10867;SDS011;62667;48.698;8.762;2024-03-08T01:11:08;24.63;;;13.63;;
10867;SDS011;62667;48.698;8.762;2024-03-08T01:13:36;27.17;;;12.87;;
10867;SDS011;62667;48.698;8.762;2024-03-08T01:16:03;28.07;;;13.50;;
10867;SDS011;62667;48.698;8.762;2024-03-08T01:18:30;25.93;;;13.57;;
10867;SDS011;62667;48.698;8.762;2024-03-08T01:20:57;24.73;;;13.83;;
10867;SDS011;62667;48.698;8.762;2024-03-08T01:23:25;23.13;;;13.10;;
10867;SDS011;62667;48.698;8.762;2024-03-08T01:25:52;22.57;;;12.73;;
10867;SDS011;62667;48.698;8.762;2024-03-08T01:28:22;28.47;;;13.03;;
10867;SDS011;62667;48.698;8.762;2024-03-08T01:30:52;21.83;;;13.53;;
10867;SDS011;62667;48.698;8.762;2024-03-08T01:33:22;24.43;;;13.80;;
10867;SDS011;62667;48.698;8.762;2024-03-08T01:35:49;24.53;;;13.27;;
10867;SDS011;62667;48.698;8.762;2024-03-08T01:38:15;24.97;;;14.50;;
10867;SDS011;62667;48.698;8.762;2024-03-08T01:40:42;24.67;;;14.30;;
10867;SDS011;62667;48.698;8.762;2024-03-08T01:43:16;25.83;;;13.50;;
10867;SDS011;62667;48.698;8.762;2024-03-08T01:45:44;23.17;;;13.43;;
10867;SDS011;62667;48.698;8.762;2024-03-08T01:48:12;21.80;;;13.43;;
10867;SDS011;62667;48.698;8.762;2024-03-08T01:50:40;25.60;;;13.07;;
10867;SDS011;62667;48.698;8.762;2024-03-08T01:53:07;21.90;;;11.87;;
10867;SDS011;62667;48.698;8.762;2024-03-08T01:55:35;23.90;;;14.20;;
10867;SDS011;62667;48.698;8.762;2024-03-08T01:58:03;19.90;;;13.00;;
10867;SDS011;62667;48.698;8.762;2024-03-08T02:00:30;29.93;;;15.10;;
10867;SDS011;62667;48.698;8.762;2024-03-08T02:02:59;24.43;;;12.97;;
10867;SDS011;62667;48.698;8.762;2024-03-08T02:05:27;25.80;;;12.83;;
10867;SDS011;62667;48.698;8.762;2024-03-08T02:07:54;22.13;;;13.00;;
10867;SDS011;62667;48.698;8.762;2024-03-08T02:10:22;22.40;;;13.40;;
10867;SDS011;62667;48.698;8.762;2024-03-08T02:12:48;20.67;;;12.97;;
10867;SDS011;62667;48.698;8.762;2024-03-08T02:15:18;21.07;;;12.53;;
10867;SDS011;62667;48.698;8.762;2024-03-08T02:17:44;22.33;;;13.50;;
10867;SDS011;62667;48.698;8.762;2024-03-08T02:20:11;25.30;;;14.23;;
10867;SDS011;62667;48.698;8.762;2024-03-08T02:22:39;27.17;;;13.83;;
10867;SDS011;62667;48.698;8.762;2024-03-08T02:25:08;23.10;;;13.40;;
10867;SDS011;62667;48.698;8.762;2024-03-08T02:27:35;21.07;;;12.67;;
10867;SDS011;62667;48.698;8.762;2024-03-08T02:30:02;23.50;;;12.67;;
10867;SDS011;62667;48.698;8.762;2024-03-08T02:32:30;24.67;;;13.50;;
10867;SDS011;62667;48.698;8.762;2024-03-08T02:34:57;24.43;;;13.33;;
10867;SDS011;62667;48.698;8.762;2024-03-08T02:37:25;23.57;;;13.10;;
10867;SDS011;62667;48.698;8.762;2024-03-08T02:39:55;19.77;;;12.50;;
10867;SDS011;62667;48.698;8.762;2024-03-08T02:42:22;24.73;;;13.20;;
10867;SDS011;62667;48.698;8.762;2024-03-08T02:44:48;24.10;;;11.67;;
10867;SDS011;62667;48.698;8.762;2024-03-08T02:47:14;21.17;;;12.50;;
10867;SDS011;62667;48.698;8.762;2024-03-08T02:49:41;17.70;;;11.97;;
10867;SDS011;62667;48.698;8.762;2024-03-08T02:52:07;23.90;;;13.10;;
10867;SDS011;62667;48.698;8.762;2024-03-08T02:54:34;21.73;;;12.07;;
10867;SDS011;62667;48.698;8.762;2024-03-08T02:57:03;25.73;;;12.33;;
10867;SDS011;62667;48.698;8.762;2024-03-08T02:59:32;25.90;;;12.77;;
10867;SDS011;62667;48.698;8.762;2024-03-08T03:01:59;20.00;;;12.13;;
10867;SDS011;62667;48.698;8.762;2024-03-08T03:04:26;22.30;;;12.10;;
10867;SDS011;62667;48.698;8.762;2024-03-08T03:06:52;22.17;;;12.23;;
10867;SDS011;62667;48.698;8.762;2024-03-08T03:09:20;18.70;;;11.80;;
10867;SDS011;62667;48.698;8.762;2024-03-08T03:11:49;27.87;;;12.40;;
10867;SDS011;62667;48.698;8.762;2024-03-08T03:14:17;23.30;;;12.10;;
10867;SDS011;62667;48.698;8.762;2024-03-08T03:16:44;23.13;;;12.37;;
10867;SDS011;62667;48.698;8.762;2024-03-08T03:19:11;21.53;;;12.53;;
10867;SDS011;62667;48.698;8.762;2024-03-08T03:21:37;24.40;;;13.33;;
10867;SDS011;62667;48.698;8.762;2024-03-08T03:24:04;18.73;;;11.47;;
10867;SDS011;62667;48.698;8.762;2024-03-08T03:26:35;22.93;;;12.10;;
10867;SDS011;62667;48.698;8.762;2024-03-08T03:29:04;21.40;;;12.03;;
10867;SDS011;62667;48.698;8.762;2024-03-08T03:31:32;18.97;;;11.57;;
10867;SDS011;62667;48.698;8.762;2024-03-08T03:33:59;24.37;;;12.20;;
10867;SDS011;62667;48.698;8.762;2024-03-08T03:36:28;21.60;;;12.20;;
10867;SDS011;62667;48.698;8.762;2024-03-08T03:38:55;23.67;;;12.13;;
10867;SDS011;62667;48.698;8.762;2024-03-08T03:41:30;20.80;;;12.00;;
10867;SDS011;62667;48.698;8.762;2024-03-08T03:43:56;18.73;;;11.13;;
10867;SDS011;62667;48.698;8.762;2024-03-08T03:46:24;22.40;;;12.00;;
10867;SDS011;62667;48.698;8.762;2024-03-08T03:48:53;22.63;;;12.43;;
10867;SDS011;62667;48.698;8.762;2024-03-08T03:51:20;23.87;;;12.47;;
10867;SDS011;62667;48.698;8.762;2024-03-08T03:53:47;21.23;;;12.20;;
10867;SDS011;62667;48.698;8.762;2024-03-08T03:56:13;26.43;;;12.77;;
10867;SDS011;62667;48.698;8.762;2024-03-08T03:58:40;21.83;;;12.37;;
10867;SDS011;62667;48.698;8.762;2024-03-08T04:01:07;21.20;;;12.20;;
10867;SDS011;62667;48.698;8.762;2024-03-08T04:03:34;19.33;;;10.73;;
10867;SDS011;62667;48.698;8.762;2024-03-08T04:06:03;28.50;;;12.60;;
10867;SDS011;62667;48.698;8.762;2024-03-08T04:08:30;23.43;;;12.87;;
10867;SDS011;62667;48.698;8.762;2024-03-08T04:10:59;22.47;;;12.50;;
10867;SDS011;62667;48.698;8.762;2024-03-08T04:13:26;20.70;;;13.13;;
10867;SDS011;62667;48.698;8.762;2024-03-08T04:15:53;22.27;;;11.77;;
10867;SDS011;62667;48.698;8.762;2024-03-08T04:18:19;25.00;;;12.63;;
10867;SDS011;62667;48.698;8.762;2024-03-08T04:20:46;23.20;;;12.20;;
10867;SDS011;62667;48.698;8.762;2024-03-08T04:23:15;22.27;;;11.63;;
10867;SDS011;62667;48.698;8.762;2024-03-08T04:25:43;18.93;;;11.63;;
10867;SDS011;62667;48.698;8.762;2024-03-08T04:28:09;18.73;;;11.77;;
10867;SDS011;62667;48.698;8.762;2024-03-08T04:30:37;21.47;;;11.90;;
10867;SDS011;62667;48.698;8.762;2024-03-08T04:33:04;25.87;;;12.70;;
10867;SDS011;62667;48.698;8.762;2024-03-08T04:35:31;19.80;;;11.23;;
10867;SDS011;62667;48.698;8.762;2024-03-08T04:37:57;20.53;;;12.00;;
10867;SDS011;62667;48.698;8.762;2024-03-08T04:40:25;20.40;;;11.53;;
10867;SDS011;62667;48.698;8.762;2024-03-08T04:42:52;22.37;;;11.73;;
10867;SDS011;62667;48.698;8.762;2024-03-08T04:45:19;24.53;;;12.30;;
10867;SDS011;62667;48.698;8.762;2024-03-08T04:47:46;22.90;;;12.10;;
10867;SDS011;62667;48.698;8.762;2024-03-08T04:50:13;19.23;;;11.07;;
10867;SDS011;62667;48.698;8.762;2024-03-08T04:52:40;20.87;;;11.90;;
10867;SDS011;62667;48.698;8.762;2024-03-08T04:55:06;22.00;;;11.80;;
10867;SDS011;62667;48.698;8.762;2024-03-08T04:57:34;19.77;;;11.27;;
10867;SDS011;62667;48.698;8.762;2024-03-08T05:00:01;20.50;;;12.10;;
10867;SDS011;62667;48.698;8.762;2024-03-08T05:02:29;27.70;;;12.83;;
10867;SDS011;62667;48.698;8.762;2024-03-08T05:04:56;21.70;;;11.80;;
10867;SDS011;62667;48.698;8.762;2024-03-08T05:07:22;24.87;;;12.73;;
10867;SDS011;62667;48.698;8.762;2024-03-08T05:09:51;21.53;;;12.20;;
10867;SDS011;62667;48.698;8.762;2024-03-08T05:12:17;19.50;;;10.67;;
10867;SDS011;62667;48.698;8.762;2024-03-08T05:14:46;21.10;;;12.60;;
10867;SDS011;62667;48.698;8.762;2024-03-08T05:17:14;20.67;;;11.97;;
10867;SDS011;62667;48.698;8.762;2024-03-08T05:19:41;18.47;;;11.67;;
10867;SDS011;62667;48.698;8.762;2024-03-08T05:22:08;21.37;;;12.07;;
10867;SDS011;62667;48.698;8.762;2024-03-08T05:24:35;17.53;;;10.87;;
10867;SDS011;62667;48.698;8.762;2024-03-08T05:27:01;19.30;;;10.87;;
10867;SDS011;62667;48.698;8.762;2024-03-08T05:29:28;19.63;;;11.37;;
10867;SDS011;62667;48.698;8.762;2024-03-08T05:31:56;23.57;;;12.43;;
10867;SDS011;62667;48.698;8.762;2024-03-08T05:34:24;18.43;;;11.80;;
10867;SDS011;62667;48.698;8.762;2024-03-08T05:36:51;20.73;;;12.00;;
10867;SDS011;62667;48.698;8.762;2024-03-08T05:39:19;25.43;;;12.13;;
10867;SDS011;62667;48.698;8.762;2024-03-08T05:41:46;26.37;;;14.70;;
10867;SDS011;62667;48.698;8.762;2024-03-08T05:44:13;79.23;;;39.77;;
10867;SDS011;62667;48.698;8.762;2024-03-08T05:46:42;98.07;;;50.03;;
10867;SDS011;62667;48.698;8.762;2024-03-08T05:49:10;39.53;;;19.57;;
10867;SDS011;62667;48.698;8.762;2024-03-08T05:51:40;26.20;;;14.00;;
10867;SDS011;62667;48.698;8.762;2024-03-08T05:54:07;26.13;;;13.73;;
10867;SDS011;62667;48.698;8.762;2024-03-08T05:56:35;20.90;;;12.03;;
10867;SDS011;62667;48.698;8.762;2024-03-08T05:59:02;26.43;;;13.00;;
10867;SDS011;62667;48.698;8.762;2024-03-08T06:01:29;20.93;;;13.07;;
10867;SDS011;62667;48.698;8.762;2024-03-08T06:03:56;22.20;;;13.10;;
10867;SDS011;62667;48.698;8.762;2024-03-08T06:06:24;25.33;;;14.60;;
10867;SDS011;62667;48.698;8.762;2024-03-08T06:08:51;20.13;;;11.67;;
10867;SDS011;62667;48.698;8.762;2024-03-08T06:11:18;22.93;;;13.57;;
10867;SDS011;62667;48.698;8.762;2024-03-08T06:13:46;25.67;;;14.37;;
10867;SDS011;62667;48.698;8.762;2024-03-08T06:16:15;28.47;;;14.77;;
10867;SDS011;62667;48.698;8.762;2024-03-08T06:18:44;24.60;;;14.00;;
10867;SDS011;62667;48.698;8.762;2024-03-08T06:21:13;22.97;;;12.80;;
10867;SDS011;62667;48.698;8.762;2024-03-08T06:23:42;22.57;;;12.90;;
10867;SDS011;62667;48.698;8.762;2024-03-08T06:26:09;25.33;;;13.07;;
10867;SDS011;62667;48.698;8.762;2024-03-08T06:28:35;21.23;;;11.87;;
10867;SDS011;62667;48.698;8.762;2024-03-08T06:31:02;22.30;;;12.80;;
10867;SDS011;62667;48.698;8.762;2024-03-08T06:33:29;29.70;;;18.10;;
10867;SDS011;62667;48.698;8.762;2024-03-08T06:36:00;23.37;;;12.57;;
10867;SDS011;62667;48.698;8.762;2024-03-08T06:38:27;18.50;;;11.23;;
10867;SDS011;62667;48.698;8.762;2024-03-08T06:40:57;18.80;;;11.13;;
10867;SDS011;62667;48.698;8.762;2024-03-08T06:43:23;21.67;;;11.97;;
10867;SDS011;62667;48.698;8.762;2024-03-08T06:45:58;24.03;;;12.60;;
10867;SDS011;62667;48.698;8.762;2024-03-08T06:48:24;24.70;;;12.33;;
10867;SDS011;62667;48.698;8.762;2024-03-08T06:50:51;20.83;;;13.27;;
10867;SDS011;62667;48.698;8.762;2024-03-08T06:53:17;22.47;;;12.70;;
10867;SDS011;62667;48.698;8.762;2024-03-08T06:55:44;31.73;;;19.77;;
10867;SDS011;62667;48.698;8.762;2024-03-08T06:58:12;49.67;;;24.27;;
10867;SDS011;62667;48.698;8.762;2024-03-08T07:00:39;36.40;;;18.70;;
10867;SDS011;62667;48.698;8.762;2024-03-08T07:03:07;28.70;;;16.80;;
10867;SDS011;62667;48.698;8.762;2024-03-08T07:05:37;25.63;;;15.80;;
10867;SDS011;62667;48.698;8.762;2024-03-08T07:08:07;26.60;;;15.07;;
10867;SDS011;62667;48.698;8.762;2024-03-08T07:10:34;26.17;;;14.93;;
10867;SDS011;62667;48.698;8.762;2024-03-08T07:13:04;25.00;;;14.30;;
10867;SDS011;62667;48.698;8.762;2024-03-08T07:15:32;24.07;;;13.27;;
10867;SDS011;62667;48.698;8.762;2024-03-08T07:17:59;24.27;;;14.37;;
10867;SDS011;62667;48.698;8.762;2024-03-08T07:20:25;27.70;;;15.23;;
10867;SDS011;62667;48.698;8.762;2024-03-08T07:22:56;29.37;;;15.27;;
10867;SDS011;62667;48.698;8.762;2024-03-08T07:25:23;29.23;;;15.27;;
10867;SDS011;62667;48.698;8.762;2024-03-08T07:27:54;31.50;;;15.40;;
10867;SDS011;62667;48.698;8.762;2024-03-08T07:30:22;26.07;;;14.67;;
10867;SDS011;62667;48.698;8.762;2024-03-08T07:33:11;24.90;;;14.70;;
10867;SDS011;62667;48.698;8.762;2024-03-08T07:35:40;29.10;;;16.30;;
10867;SDS011;62667;48.698;8.762;2024-03-08T07:38:09;28.17;;;16.07;;
10867;SDS011;62667;48.698;8.762;2024-03-08T07:40:37;28.37;;;16.50;;
10867;SDS011;62667;48.698;8.762;2024-03-08T07:43:07;29.20;;;16.57;;
10867;SDS011;62667;48.698;8.762;2024-03-08T07:45:33;56.13;;;26.10;;
10867;SDS011;62667;48.698;8.762;2024-03-08T07:48:00;27.77;;;15.40;;
10867;SDS011;62667;48.698;8.762;2024-03-08T07:50:29;26.60;;;15.30;;
10867;SDS011;62667;48.698;8.762;2024-03-08T07:52:58;26.30;;;13.97;;
10867;SDS011;62667;48.698;8.762;2024-03-08T07:55:26;26.70;;;13.63;;
10867;SDS011;62667;48.698;8.762;2024-03-08T07:57:53;28.47;;;14.40;;
10867;SDS011;62667;48.698;8.762;2024-03-08T08:00:20;30.03;;;13.57;;
10867;SDS011;62667;48.698;8.762;2024-03-08T08:02:47;28.43;;;14.00;;
10867;SDS011;62667;48.698;8.762;2024-03-08T08:05:14;25.13;;;13.80;;
10867;SDS011;62667;48.698;8.762;2024-03-08T08:07:45;23.93;;;14.07;;
10867;SDS011;62667;48.698;8.762;2024-03-08T08:10:12;24.07;;;13.13;;
10867;SDS011;62667;48.698;8.762;2024-03-08T08:12:43;24.53;;;13.43;;
10867;SDS011;62667;48.698;8.762;2024-03-08T08:15:10;25.83;;;14.17;;
10867;SDS011;62667;48.698;8.762;2024-03-08T08:17:38;23.47;;;13.43;;
10867;SDS011;62667;48.698;8.762;2024-03-08T08:20:05;20.67;;;12.40;;
10867;SDS011;62667;48.698;8.762;2024-03-08T08:22:34;23.77;;;12.57;;
10867;SDS011;62667;48.698;8.762;2024-03-08T08:25:02;23.37;;;12.73;;
10867;SDS011;62667;48.698;8.762;2024-03-08T08:27:28;20.73;;;12.17;;
10867;SDS011;62667;48.698;8.762;2024-03-08T08:29:55;20.93;;;12.70;;
10867;SDS011;62667;48.698;8.762;2024-03-08T08:32:22;23.10;;;12.80;;
10867;SDS011;62667;48.698;8.762;2024-03-08T08:34:49;22.13;;;12.60;;
10867;SDS011;62667;48.698;8.762;2024-03-08T08:37:15;23.43;;;12.70;;
10867;SDS011;62667;48.698;8.762;2024-03-08T08:39:42;22.97;;;12.40;;
10867;SDS011;62667;48.698;8.762;2024-03-08T08:42:10;22.50;;;12.47;;
10867;SDS011;62667;48.698;8.762;2024-03-08T08:44:38;23.07;;;12.40;;
10867;SDS011;62667;48.698;8.762;2024-03-08T08:47:04;29.10;;;12.73;;
10867;SDS011;62667;48.698;8.762;2024-03-08T08:49:32;20.90;;;12.17;;
10867;SDS011;62667;48.698;8.762;2024-03-08T08:52:01;22.53;;;12.80;;
10867;SDS011;62667;48.698;8.762;2024-03-08T08:54:28;24.63;;;13.10;;
10867;SDS011;62667;48.698;8.762;2024-03-08T08:56:55;27.70;;;13.43;;
10867;SDS011;62667;48.698;8.762;2024-03-08T08:59:23;25.23;;;13.77;;
10867;SDS011;62667;48.698;8.762;2024-03-08T09:01:50;22.83;;;12.23;;
10867;SDS011;62667;48.698;8.762;2024-03-08T09:04:19;24.20;;;14.30;;
10867;SDS011;62667;48.698;8.762;2024-03-08T09:06:47;20.57;;;11.63;;
10867;SDS011;62667;48.698;8.762;2024-03-08T09:09:13;22.40;;;11.87;;
10867;SDS011;62667;48.698;8.762;2024-03-08T09:11:41;22.10;;;11.70;;
10867;SDS011;62667;48.698;8.762;2024-03-08T09:14:07;26.70;;;13.20;;
10867;SDS011;62667;48.698;8.762;2024-03-08T09:16:38;22.57;;;11.83;;
10867;SDS011;62667;48.698;8.762;2024-03-08T09:19:05;20.03;;;12.33;;
10867;SDS011;62667;48.698;8.762;2024-03-08T09:21:32;22.87;;;12.27;;
10867;SDS011;62667;48.698;8.762;2024-03-08T09:24:00;21.90;;;12.80;;
10867;SDS011;62667;48.698;8.762;2024-03-08T09:26:26;23.17;;;13.20;;
10867;SDS011;62667;48.698;8.762;2024-03-08T09:28:56;19.30;;;12.27;;
10867;SDS011;62667;48.698;8.762;2024-03-08T09:31:22;23.87;;;12.83;;
10867;SDS011;62667;48.698;8.762;2024-03-08T09:33:50;24.23;;;11.53;;
10867;SDS011;62667;48.698;8.762;2024-03-08T09:36:20;17.97;;;11.57;;
10867;SDS011;62667;48.698;8.762;2024-03-08T09:38:47;19.67;;;11.33;;
10867;SDS011;62667;48.698;8.762;2024-03-08T09:41:15;20.30;;;11.93;;
10867;SDS011;62667;48.698;8.762;2024-03-08T09:43:42;18.73;;;11.67;;
10867;SDS011;62667;48.698;8.762;2024-03-08T09:46:09;21.67;;;11.60;;
10867;SDS011;62667;48.698;8.762;2024-03-08T09:48:38;18.80;;;10.63;;
10867;SDS011;62667;48.698;8.762;2024-03-08T09:51:08;16.23;;;10.27;;
10867;SDS011;62667;48.698;8.762;2024-03-08T09:53:38;19.17;;;11.13;;
10867;SDS011;62667;48.698;8.762;2024-03-08T09:56:06;19.93;;;11.60;;
10867;SDS011;62667;48.698;8.762;2024-03-08T09:58:33;16.80;;;10.73;;
10867;SDS011;62667;48.698;8.762;2024-03-08T10:01:19;21.37;;;11.00;;
10867;SDS011;62667;48.698;8.762;2024-03-08T10:03:47;19.00;;;11.73;;
10867;SDS011;62667;48.698;8.762;2024-03-08T10:06:15;17.40;;;10.33;;
10867;SDS011;62667;48.698;8.762;2024-03-08T10:08:43;20.07;;;11.23;;
10867;SDS011;62667;48.698;8.762;2024-03-08T10:11:10;21.53;;;11.43;;
10867;SDS011;62667;48.698;8.762;2024-03-08T10:13:37;19.27;;;11.83;;
10867;SDS011;62667;48.698;8.762;2024-03-08T10:16:05;27.83;;;11.43;;
10867;SDS011;62667;48.698;8.762;2024-03-08T10:18:32;20.73;;;11.00;;
10867;SDS011;62667;48.698;8.762;2024-03-08T10:21:04;22.67;;;11.60;;
10867;SDS011;62667;48.698;8.762;2024-03-08T10:23:33;23.60;;;12.47;;
10867;SDS011;62667;48.698;8.762;2024-03-08T10:26:10;19.57;;;11.53;;
10867;SDS011;62667;48.698;8.762;2024-03-08T10:28:40;19.23;;;11.37;;
10867;SDS011;62667;48.698;8.762;2024-03-08T10:31:07;16.60;;;10.57;;
10867;SDS011;62667;48.698;8.762;2024-03-08T10:33:34;18.27;;;10.73;;
10867;SDS011;62667;48.698;8.762;2024-03-08T10:36:03;20.93;;;11.70;;
10867;SDS011;62667;48.698;8.762;2024-03-08T10:38:31;26.37;;;11.40;;
10867;SDS011;62667;48.698;8.762;2024-03-08T10:41:01;18.37;;;11.37;;
10867;SDS011;62667;48.698;8.762;2024-03-08T10:43:41;17.40;;;10.67;;
10867;SDS011;62667;48.698;8.762;2024-03-08T10:46:21;23.13;;;12.50;;
10867;SDS011;62667;48.698;8.762;2024-03-08T10:48:57;21.97;;;12.13;;
10867;SDS011;62667;48.698;8.762;2024-03-08T10:51:28;20.43;;;12.07;;
10867;SDS011;62667;48.698;8.762;2024-03-08T10:53:56;20.30;;;11.90;;
10867;SDS011;62667;48.698;8.762;2024-03-08T10:56:25;22.13;;;11.70;;
10867;SDS011;62667;48.698;8.762;2024-03-08T10:58:53;22.17;;;12.13;;
10867;SDS011;62667;48.698;8.762;2024-03-08T11:01:21;20.50;;;11.77;;
10867;SDS011;62667;48.698;8.762;2024-03-08T11:03:49;20.67;;;10.73;;
10867;SDS011;62667;48.698;8.762;2024-03-08T11:06:18;18.47;;;10.57;;
10867;SDS011;62667;48.698;8.762;2024-03-08T11:08:49;20.40;;;10.87;;
10867;SDS011;62667;48.698;8.762;2024-03-08T11:11:24;17.23;;;10.03;;
10867;SDS011;62667;48.698;8.762;2024-03-08T11:13:55;14.73;;;9.67;;
10867;SDS011;62667;48.698;8.762;2024-03-08T11:16:40;17.70;;;9.33;;
10867;SDS011;62667;48.698;8.762;2024-03-08T11:19:24;17.80;;;10.27;;
10867;SDS011;62667;48.698;8.762;2024-03-08T11:21:57;18.57;;;10.20;;
10867;SDS011;62667;48.698;8.762;2024-03-08T11:24:24;25.67;;;11.83;;
10867;SDS011;62667;48.698;8.762;2024-03-08T11:26:55;20.40;;;10.97;;
10867;SDS011;62667;48.698;8.762;2024-03-08T11:29:37;20.00;;;11.33;;
10867;SDS011;62667;48.698;8.762;2024-03-08T11:32:08;19.90;;;12.27;;
10867;SDS011;62667;48.698;8.762;2024-03-08T11:34:40;18.73;;;10.77;;
10867;SDS011;62667;48.698;8.762;2024-03-08T11:37:11;19.10;;;10.37;;
10867;SDS011;62667;48.698;8.762;2024-03-08T11:39:40;18.77;;;10.00;;
10867;SDS011;62667;48.698;8.762;2024-03-08T11:42:13;16.77;;;9.93;;
10867;SDS011;62667;48.698;8.762;2024-03-08T11:44:41;18.37;;;10.33;;
10867;SDS011;62667;48.698;8.762;2024-03-08T11:47:09;16.97;;;10.33;;
10867;SDS011;62667;48.698;8.762;2024-03-08T11:49:36;23.77;;;9.93;;
10867;SDS011;62667;48.698;8.762;2024-03-08T11:52:03;15.97;;;10.00;;
10867;SDS011;62667;48.698;8.762;2024-03-08T11:54:30;22.63;;;10.93;;
10867;SDS011;62667;48.698;8.762;2024-03-08T11:56:57;17.77;;;10.20;;
10867;SDS011;62667;48.698;8.762;2024-03-08T11:59:27;14.17;;;9.43;;
10867;SDS011;62667;48.698;8.762;2024-03-08T12:01:59;15.77;;;9.67;;
10867;SDS011;62667;48.698;8.762;2024-03-08T12:04:27;19.43;;;10.07;;
10867;SDS011;62667;48.698;8.762;2024-03-08T12:06:53;17.10;;;9.83;;
10867;SDS011;62667;48.698;8.762;2024-03-08T12:09:20;13.07;;;8.33;;
10867;SDS011;62667;48.698;8.762;2024-03-08T12:11:48;14.80;;;9.80;;
10867;SDS011;62667;48.698;8.762;2024-03-08T12:14:16;16.67;;;8.93;;
10867;SDS011;62667;48.698;8.762;2024-03-08T12:16:44;19.60;;;10.00;;
10867;SDS011;62667;48.698;8.762;2024-03-08T12:19:10;14.43;;;8.27;;
10867;SDS011;62667;48.698;8.762;2024-03-08T12:21:37;14.83;;;8.87;;
10867;SDS011;62667;48.698;8.762;2024-03-08T12:24:11;14.03;;;8.67;;
10867;SDS011;62667;48.698;8.762;2024-03-08T12:26:41;11.80;;;7.83;;
10867;SDS011;62667;48.698;8.762;2024-03-08T12:29:15;14.23;;;8.87;;
10867;SDS011;62667;48.698;8.762;2024-03-08T12:31:46;12.70;;;8.17;;
10867;SDS011;62667;48.698;8.762;2024-03-08T12:34:13;16.70;;;8.43;;
10867;SDS011;62667;48.698;8.762;2024-03-08T12:36:44;13.57;;;8.40;;
10867;SDS011;62667;48.698;8.762;2024-03-08T12:39:12;21.10;;;8.57;;
10867;SDS011;62667;48.698;8.762;2024-03-08T12:41:41;13.50;;;8.40;;
10867;SDS011;62667;48.698;8.762;2024-03-08T12:44:08;14.07;;;8.13;;
10867;SDS011;62667;48.698;8.762;2024-03-08T12:46:36;14.00;;;8.87;;
10867;SDS011;62667;48.698;8.762;2024-03-08T12:49:07;14.07;;;8.50;;
10867;SDS011;62667;48.698;8.762;2024-03-08T12:51:34;13.63;;;8.93;;
10867;SDS011;62667;48.698;8.762;2024-03-08T12:54:01;14.37;;;8.83;;
10867;SDS011;62667;48.698;8.762;2024-03-08T12:56:29;14.77;;;8.50;;
10867;SDS011;62667;48.698;8.762;2024-03-08T12:58:57;16.03;;;8.50;;
10867;SDS011;62667;48.698;8.762;2024-03-08T13:01:24;14.00;;;7.97;;
10867;SDS011;62667;48.698;8.762;2024-03-08T13:03:52;11.27;;;7.57;;
10867;SDS011;62667;48.698;8.762;2024-03-08T13:06:21;12.03;;;7.30;;
10867;SDS011;62667;48.698;8.762;2024-03-08T13:08:49;13.33;;;7.57;;
10867;SDS011;62667;48.698;8.762;2024-03-08T13:11:18;12.70;;;7.80;;
10867;SDS011;62667;48.698;8.762;2024-03-08T13:13:45;13.13;;;8.20;;
10867;SDS011;62667;48.698;8.762;2024-03-08T13:16:12;11.20;;;7.50;;
10867;SDS011;62667;48.698;8.762;2024-03-08T13:18:42;10.17;;;6.63;;
10867;SDS011;62667;48.698;8.762;2024-03-08T13:21:12;12.60;;;7.97;;
10867;SDS011;62667;48.698;8.762;2024-03-08T13:23:46;13.37;;;7.70;;
10867;SDS011;62667;48.698;8.762;2024-03-08T13:26:14;11.37;;;7.37;;
10867;SDS011;62667;48.698;8.762;2024-03-08T13:28:42;11.43;;;7.60;;
10867;SDS011;62667;48.698;8.762;2024-03-08T13:31:09;13.77;;;7.33;;
10867;SDS011;62667;48.698;8.762;2024-03-08T13:33:36;11.83;;;7.87;;
10867;SDS011;62667;48.698;8.762;2024-03-08T13:36:05;12.50;;;7.47;;
10867;SDS011;62667;48.698;8.762;2024-03-08T13:38:39;13.97;;;8.13;;
10867;SDS011;62667;48.698;8.762;2024-03-08T13:41:09;13.77;;;7.93;;
10867;SDS011;62667;48.698;8.762;2024-03-08T13:43:42;11.47;;;7.77;;
10867;SDS011;62667;48.698;8.762;2024-03-08T13:46:09;12.87;;;8.13;;
10867;SDS011;62667;48.698;8.762;2024-03-08T13:48:36;14.57;;;7.83;;
10867;SDS011;62667;48.698;8.762;2024-03-08T13:51:03;11.70;;;7.53;;
10867;SDS011;62667;48.698;8.762;2024-03-08T13:53:33;12.13;;;7.43;;
10867;SDS011;62667;48.698;8.762;2024-03-08T13:56:00;10.83;;;7.53;;
10867;SDS011;62667;48.698;8.762;2024-03-08T13:58:29;12.03;;;7.80;;
10867;SDS011;62667;48.698;8.762;2024-03-08T14:00:55;10.93;;;7.37;;
10867;SDS011;62667;48.698;8.762;2024-03-08T14:03:22;11.40;;;7.23;;
10867;SDS011;62667;48.698;8.762;2024-03-08T14:05:49;12.00;;;8.07;;
10867;SDS011;62667;48.698;8.762;2024-03-08T14:08:16;11.87;;;8.03;;
10867;SDS011;62667;48.698;8.762;2024-03-08T14:10:43;13.07;;;8.40;;
10867;SDS011;62667;48.698;8.762;2024-03-08T14:13:12;13.97;;;8.40;;
10867;SDS011;62667;48.698;8.762;2024-03-08T14:15:45;14.23;;;8.30;;
10867;SDS011;62667;48.698;8.762;2024-03-08T14:18:11;12.40;;;7.80;;
10867;SDS011;62667;48.698;8.762;2024-03-08T14:20:39;10.17;;;7.50;;
10867;SDS011;62667;48.698;8.762;2024-03-08T14:23:07;10.90;;;7.73;;
10867;SDS011;62667;48.698;8.762;2024-03-08T14:25:33;13.07;;;7.90;;
10867;SDS011;62667;48.698;8.762;2024-03-08T14:28:00;12.63;;;8.03;;
10867;SDS011;62667;48.698;8.762;2024-03-08T14:30:31;15.10;;;8.20;;